Time;durP1;ratioP1;P1;durP2;ratioP2;P2;SDS_P1;SDS_P2;PMS_P1;PMS_P2;Temp;Humidity;BMP_temperature;BMP_pressure;BME280_temperature;BME280_humidity;BME280_pressure;Samples;Min_cycle;Max_cycle;Signal;HPM_P1;HPM_P2
2022/06/30 00:01:29;;;;;;;10.70;5.15;;;;;;;24.20;nan;95219.22;6305632;22;20164;-82
2022/06/30 00:03:55;;;;;;;14.48;5.22;;;;;;;23.35;nan;95088.31;6306067;22;20090;-83
2022/06/30 00:06:20;;;;;;;8.27;5.10;;;;;;;24.23;nan;95223.94;6305704;22;20007;-82
2022/06/30 00:08:46;;;;;;;13.00;5.72;;;;;;;23.53;nan;95150.97;6305243;22;20037;-83
2022/06/30 00:11:11;;;;;;;12.68;5.00;;;;;;;23.92;nan;95205.91;6278752;22;20007;-82
2022/06/30 00:13:39;;;;;;;6.15;5.38;;;;;;;23.19;nan;95144.41;6277724;22;20011;-82
2022/06/30 00:16:05;;;;;;;7.90;5.05;;;;;;;23.55;nan;95202.84;6276467;22;20031;-82
2022/06/30 00:18:31;;;;;;;17.38;5.78;;;;;;;23.79;nan;95226.94;6274629;22;20015;-83
2022/06/30 00:20:57;;;;;;;14.43;5.70;;;;;;;23.32;nan;95191.09;6304042;22;20003;-83
2022/06/30 00:23:23;;;;;;;8.35;5.10;;;;;;;23.72;nan;95228.72;6276054;22;20012;-83
2022/06/30 00:25:48;;;;;;;10.35;5.70;;;;;;;23.45;nan;95181.69;6303830;22;20096;-83
2022/06/30 00:28:14;;;;;;;8.95;5.25;;;;;;;23.53;nan;95237.59;6303987;22;20004;-83
2022/06/30 00:30:39;;;;;;;9.75;5.20;;;;;;;23.24;nan;95165.81;6304503;22;20011;-83
2022/06/30 00:33:05;;;;;;;11.43;6.07;;;;;;;22.61;nan;95111.81;6276367;22;20029;-83
2022/06/30 00:35:30;;;;;;;18.50;6.88;;;;;;;22.55;nan;95090.84;6303552;22;20007;-83
2022/06/30 00:37:56;;;;;;;13.73;6.53;;;;;;;23.17;nan;95211.66;6276181;22;20022;-82
2022/06/30 00:40:21;;;;;;;13.55;7.50;;;;;;;22.47;nan;95116.13;6276188;22;20041;-83
2022/06/30 00:42:47;;;;;;;17.88;7.88;;;;;;;22.59;nan;95127.59;6276806;22;20018;-83
2022/06/30 00:45:13;;;;;;;19.15;7.35;;;;;;;23.03;nan;95195.88;6303394;22;20366;-82
2022/06/30 00:47:38;;;;;;;10.50;7.63;;;;;;;23.11;nan;95215.75;6275715;22;20011;-82
2022/06/30 00:50:05;;;;;;;15.80;7.47;;;;;;;22.56;nan;95151.84;6304453;22;20011;-82
2022/06/30 00:52:34;;;;;;;15.85;6.63;;;;;;;22.48;nan;95123.09;6303610;22;20025;-82
2022/06/30 00:55:01;;;;;;;14.07;7.53;;;;;;;23.25;nan;95220.69;6276045;22;20007;-83
2022/06/30 00:57:29;;;;;;;9.45;6.32;;;;;;;22.74;nan;95136.06;6274609;22;20027;-82
2022/06/30 00:59:57;;;;;;;10.65;6.28;;;;;;;22.43;nan;95104.47;6277494;22;20011;-83
2022/06/30 01:02:23;;;;;;;10.88;6.85;;;;;;;22.29;nan;95148.88;6306122;22;20030;-83
2022/06/30 01:04:51;;;;;;;16.77;7.30;;;;;;;22.17;nan;95159.00;6306148;22;20109;-83
2022/06/30 01:07:19;;;;;;;8.43;6.57;;;;;;;22.20;nan;95161.78;6277905;22;20034;-82
2022/06/30 01:12:44;;;;;;;9.40;6.53;;;;;;;22.67;nan;95206.94;6306056;22;20092;-82
2022/06/30 01:15:15;;;;;;;8.38;6.40;;;;;;;22.09;nan;95104.00;6280430;22;20011;-82
2022/06/30 01:17:41;;;;;;;15.75;7.22;;;;;;;22.48;nan;95153.59;6308440;22;20049;-83
2022/06/30 01:20:07;;;;;;;12.35;6.50;;;;;;;22.43;nan;95212.53;6279164;22;20045;-82
2022/06/30 01:22:33;;;;;;;11.27;6.53;;;;;;;21.77;nan;95094.28;6278216;22;20022;-83
2022/06/30 01:24:58;;;;;;;10.30;6.13;;;;;;;22.61;nan;95205.63;6278214;22;20011;-82
2022/06/30 01:27:24;;;;;;;8.73;6.72;;;;;;;22.19;nan;95135.13;6278821;22;20038;-82
2022/06/30 01:29:52;;;;;;;14.10;6.47;;;;;;;22.82;nan;95221.63;6278036;22;20087;-83
2022/06/30 01:32:19;;;;;;;10.30;6.68;;;;;;;22.36;nan;95150.97;6305490;22;20011;-82
2022/06/30 01:34:44;;;;;;;11.93;6.38;;;;;;;22.88;nan;95209.41;6278326;22;20094;-82
2022/06/30 01:37:10;;;;;;;13.15;6.82;;;;;;;22.25;nan;95125.63;6278033;22;20461;-82
2022/06/30 01:39:35;;;;;;;11.88;6.35;;;;;;;22.75;nan;95213.34;6277767;22;20022;-82
2022/06/30 01:42:02;;;;;;;10.35;7.00;;;;;;;22.29;nan;95145.41;6306744;22;20514;-83
2022/06/30 01:44:28;;;;;;;13.18;7.10;;;;;;;22.70;nan;95211.66;6305555;22;20003;-82
2022/06/30 01:46:53;;;;;;;13.68;6.20;;;;;;;22.28;nan;95160.03;6305544;22;20011;-83
2022/06/30 01:49:19;;;;;;;11.38;6.43;;;;;;;22.58;nan;95209.06;6277483;22;20007;-83
2022/06/30 01:51:44;;;;;;;10.57;6.20;;;;;;;22.30;nan;95169.38;6278179;22;20463;-83
2022/06/30 01:54:10;;;;;;;14.05;6.70;;;;;;;22.01;nan;95131.97;6305394;22;20392;-83
2022/06/30 01:56:36;;;;;;;11.00;6.75;;;;;;;22.49;nan;95213.84;6277756;22;20023;-83
2022/06/30 01:59:03;;;;;;;11.30;6.10;;;;;;;22.08;nan;95155.66;6305955;22;20010;-83
2022/06/30 02:01:28;;;;;;;10.73;6.60;;;;;;;22.08;nan;95153.75;6278610;22;20015;-83
2022/06/30 02:03:54;;;;;;;8.55;6.43;;;;;;;22.13;nan;95175.09;6278491;22;20026;-82
2022/06/30 02:06:19;;;;;;;11.52;6.88;;;;;;;22.44;nan;95217.56;6305237;22;20422;-83
2022/06/30 02:08:45;;;;;;;18.63;7.55;;;;;;;22.44;nan;95211.38;6278443;22;20011;-83
2022/06/30 02:11:10;;;;;;;11.43;6.80;;;;;;;21.35;nan;95077.75;6277318;22;20409;-82
2022/06/30 02:13:36;;;;;;;11.00;6.82;;;;;;;22.18;nan;95188.38;6306297;22;20010;-83
2022/06/30 02:16:01;;;;;;;17.88;6.72;;;;;;;21.70;nan;95102.97;6278489;22;20017;-82
2022/06/30 02:18:27;;;;;;;15.25;6.82;;;;;;;21.89;nan;95157.06;6277881;22;20011;-84
2022/06/30 02:20:52;;;;;;;13.32;6.85;;;;;;;22.26;nan;95203.63;6278102;22;20027;-84
2022/06/30 02:23:18;;;;;;;14.18;6.85;;;;;;;21.85;nan;95133.81;6306636;22;20008;-84
2022/06/30 02:25:43;;;;;;;13.73;6.70;;;;;;;20.52;nan;94990.25;6278163;22;20007;-84
2022/06/30 02:28:09;;;;;;;15.23;7.88;;;;;;;21.11;nan;95055.09;6278201;22;20034;-84
2022/06/30 02:30:35;;;;;;;13.13;6.93;;;;;;;21.99;nan;95199.03;6304937;22;20031;-84
2022/06/30 02:33:01;;;;;;;14.45;6.70;;;;;;;21.25;nan;95105.19;6306049;22;20018;-83
2022/06/30 02:35:27;;;;;;;10.98;7.60;;;;;;;22.08;nan;95228.59;6305853;22;20026;-83
2022/06/30 02:37:53;;;;;;;13.82;7.25;;;;;;;21.38;nan;95147.19;6305126;22;20353;-83
2022/06/30 02:40:19;;;;;;;10.82;7.07;;;;;;;21.60;nan;95205.22;6305608;22;20064;-84
2022/06/30 02:42:45;;;;;;;14.73;7.72;;;;;;;21.52;nan;95202.31;6305593;22;20007;-84
2022/06/30 02:45:12;;;;;;;12.40;7.03;;;;;;;21.81;nan;95222.03;6278515;22;20058;-84
2022/06/30 02:47:40;;;;;;;15.57;7.60;;;;;;;21.87;nan;95221.44;6305729;22;20361;-83
2022/06/30 02:50:08;;;;;;;12.45;7.05;;;;;;;21.68;nan;95191.59;6305653;22;20003;-84
2022/06/30 02:52:35;;;;;;;14.93;7.32;;;;;;;21.56;nan;95181.63;6277581;22;20050;-83
2022/06/30 02:55:02;;;;;;;16.25;7.53;;;;;;;21.78;nan;95226.22;6305455;22;20347;-83
2022/06/30 02:57:28;;;;;;;12.43;7.28;;;;;;;21.58;nan;95197.50;6305618;22;20446;-84
2022/06/30 02:59:54;;;;;;;11.52;7.50;;;;;;;21.40;nan;95178.09;6277850;22;20063;-83
2022/06/30 03:02:19;;;;;;;21.33;7.78;;;;;;;21.13;nan;95152.59;6276500;22;20007;-84
2022/06/30 03:04:45;;;;;;;15.10;7.55;;;;;;;21.00;nan;95174.53;6277735;22;20011;-83
2022/06/30 03:07:11;;;;;;;14.15;7.93;;;;;;;20.77;nan;95150.75;6277663;22;20015;-84
2022/06/30 03:09:36;;;;;;;17.00;7.70;;;;;;;20.90;nan;95134.59;6305748;22;20008;-83
2022/06/30 03:12:02;;;;;;;16.88;8.18;;;;;;;20.83;nan;95115.50;6305197;22;20483;-83
2022/06/30 03:14:28;;;;;;;15.68;7.82;;;;;;;21.07;nan;95147.78;6304486;22;20007;-84
2022/06/30 03:16:54;;;;;;;16.02;7.70;;;;;;;20.44;nan;95049.66;6277561;22;20003;-84
2022/06/30 03:19:19;;;;;;;17.23;7.47;;;;;;;21.64;nan;95217.72;6278029;22;20095;-84
2022/06/30 03:21:45;;;;;;;20.42;7.68;;;;;;;21.12;nan;95124.09;6277020;22;20087;-84
2022/06/30 03:24:10;;;;;;;17.33;7.28;;;;;;;21.71;nan;95226.00;6277614;22;20433;-84
2022/06/30 03:26:36;;;;;;;22.13;7.80;;;;;;;21.21;nan;95169.06;6305047;22;20003;-84
2022/06/30 03:29:03;;;;;;;13.77;7.13;;;;;;;21.35;nan;95182.94;6277787;22;20098;-83
2022/06/30 03:31:28;;;;;;;18.73;7.70;;;;;;;21.03;nan;95118.03;6304739;22;20051;-83
2022/06/30 03:33:53;;;;;;;9.18;7.75;;;;;;;21.66;nan;95225.47;6276746;22;20459;-84
2022/06/30 03:36:19;;;;;;;10.07;7.25;;;;;;;20.82;nan;95138.19;6278885;22;20477;-84
2022/06/30 03:38:44;;;;;;;10.80;7.20;;;;;;;20.91;nan;95147.72;6305043;22;20010;-84
2022/06/30 03:41:10;;;;;;;20.98;9.15;;;;;;;20.92;nan;95156.59;6278414;22;20018;-84
2022/06/30 03:43:35;;;;;;;15.43;7.40;;;;;;;20.85;nan;95132.09;6304775;22;20379;-83
2022/06/30 03:46:01;;;;;;;13.98;8.13;;;;;;;21.01;nan;95155.34;6305189;22;20064;-83
2022/06/30 03:48:26;;;;;;;19.42;8.88;;;;;;;21.15;nan;95155.75;6305024;22;20085;-84
2022/06/30 03:50:52;;;;;;;22.67;7.82;;;;;;;21.36;nan;95182.59;6305029;22;19999;-83
2022/06/30 03:53:17;;;;;;;13.73;8.05;;;;;;;20.92;nan;95126.94;6277153;22;20011;-83
2022/06/30 03:55:43;;;;;;;21.00;8.10;;;;;;;21.44;nan;95207.84;6278707;22;20057;-83
2022/06/30 03:58:09;;;;;;;16.58;8.68;;;;;;;21.71;nan;95230.63;6305044;22;20369;-84
2022/06/30 04:00:35;;;;;;;16.75;7.85;;;;;;;21.51;nan;95189.19;6304706;22;20003;-84
2022/06/30 04:03:02;;;;;;;13.07;8.50;;;;;;;21.31;nan;95147.75;6304695;22;20003;-84
2022/06/30 04:05:28;;;;;;;14.43;7.82;;;;;;;21.25;nan;95142.97;6276969;22;20015;-84
2022/06/30 04:07:53;;;;;;;15.65;7.80;;;;;;;21.59;nan;95182.09;6304773;22;20060;-84
2022/06/30 04:10:19;;;;;;;16.20;8.50;;;;;;;21.90;nan;95230.75;6277671;22;20011;-84
2022/06/30 04:12:44;;;;;;;18.20;7.82;;;;;;;21.31;nan;95147.75;6303628;22;20412;-84
2022/06/30 04:15:10;;;;;;;11.40;7.45;;;;;;;21.67;nan;95192.72;6304274;22;20003;-84
2022/06/30 04:17:36;;;;;;;14.07;8.20;;;;;;;19.99;nan;94919.41;6276482;22;20008;-84
2022/06/30 04:20:18;;;;;;;13.70;8.18;;;;;;;21.31;nan;95111.91;6304849;22;20003;-84
2022/06/30 04:22:48;;;;;;;18.17;8.45;;;;;;;22.08;nan;95236.69;6276551;22;20018;-83
2022/06/30 04:25:14;;;;;;;12.38;7.68;;;;;;;22.03;nan;95235.03;6304133;22;20086;-82
2022/06/30 04:27:48;;;;;;;17.63;8.65;;;;;;;21.45;nan;95134.69;6304037;22;20331;-82
2022/06/30 04:30:15;;;;;;;19.15;8.05;;;;;;;21.87;nan;95186.34;6276375;22;20014;-83
2022/06/30 04:32:41;;;;;;;16.27;8.35;;;;;;;21.40;nan;95113.34;6276587;22;20042;-83
2022/06/30 04:35:12;;;;;;;14.38;8.73;;;;;;;21.77;nan;95176.03;6277361;22;20373;-82
2022/06/30 04:37:38;;;;;;;16.90;9.23;;;;;;;22.17;nan;95215.72;6306427;22;20078;-82
2022/06/30 04:42:48;;;;;;;15.20;9.18;;;;;;;21.98;nan;95188.56;6305212;22;20021;-82
2022/06/30 04:45:13;;;;;;;14.50;9.25;;;;;;;21.12;nan;95040.50;6277760;22;20007;-83
2022/06/30 04:47:39;;;;;;;13.73;9.23;;;;;;;22.12;nan;95180.88;6279041;22;20015;-83
2022/06/30 04:50:05;;;;;;;23.60;10.10;;;;;;;22.03;nan;95156.72;6277976;22;20011;-82
2022/06/30 04:52:31;;;;;;;14.10;8.95;;;;;;;21.95;nan;95144.13;6303971;22;20003;-82
2022/06/30 04:54:56;;;;;;;18.65;9.48;;;;;;;21.64;nan;95084.69;6303699;22;20006;-82
2022/06/30 04:57:22;;;;;;;18.17;9.07;;;;;;;22.37;nan;95192.28;6277801;22;20043;-82
2022/06/30 04:59:47;;;;;;;17.00;8.60;;;;;;;22.78;nan;95235.06;6273732;22;20080;-83
2022/06/30 05:02:13;;;;;;;16.50;8.00;;;;;;;22.85;nan;95246.06;6296511;22;20372;-83
2022/06/30 05:04:38;;;;;;;19.17;8.65;;;;;;;22.33;nan;95157.09;6266334;22;20029;-83
2022/06/30 05:07:04;;;;;;;16.70;8.95;;;;;;;22.67;nan;95206.94;6274527;22;20007;-84
2022/06/30 05:09:30;;;;;;;11.18;7.10;;;;;;;22.63;nan;95187.94;6303972;22;20015;-83
2022/06/30 05:11:55;;;;;;;16.80;6.55;;;;;;;22.73;nan;95208.28;6276077;22;20077;-83
2022/06/30 05:14:21;;;;;;;21.92;8.00;;;;;;;23.03;nan;95231.03;6275743;22;20007;-83
2022/06/30 05:16:46;;;;;;;15.90;7.00;;;;;;;22.76;nan;95213.00;6272327;22;20330;-83
2022/06/30 05:19:12;;;;;;;12.05;6.53;;;;;;;22.56;nan;95190.47;6276225;22;20076;-83
2022/06/30 05:21:37;;;;;;;13.55;7.40;;;;;;;22.74;nan;95217.97;6303497;22;20075;-83
2022/06/30 05:26:47;;;;;;;17.10;6.72;;;;;;;22.41;nan;95160.75;6303458;22;20021;-83
2022/06/30 05:29:12;;;;;;;13.20;7.05;;;;;;;22.83;nan;95204.25;6272842;22;20381;-85
2022/06/30 05:31:38;;;;;;;11.93;7.03;;;;;;;22.68;nan;95171.47;6300028;22;20010;-83
2022/06/30 05:34:03;;;;;;;19.95;9.05;;;;;;;22.23;nan;95098.16;6302803;22;20070;-84
2022/06/30 05:36:29;;;;;;;18.15;7.90;;;;;;;23.18;nan;95261.91;6270425;22;20432;-83
2022/06/30 05:38:54;;;;;;;16.48;7.88;;;;;;;22.80;nan;95189.53;6297371;22;20007;-83
2022/06/30 05:41:20;;;;;;;13.23;7.53;;;;;;;23.12;nan;95214.59;6297994;22;20031;-83
2022/06/30 05:43:48;;;;;;;16.13;7.90;;;;;;;23.01;nan;95221.69;6271357;22;20085;-83
2022/06/30 05:46:14;;;;;;;16.65;8.50;;;;;;;23.43;nan;95260.53;6300349;22;20094;-84
2022/06/30 05:48:39;;;;;;;19.58;7.30;;;;;;;23.44;nan;95253.19;6276848;22;20110;-84
2022/06/30 05:51:05;;;;;;;17.73;7.65;;;;;;;23.41;nan;95248.50;6297574;22;20034;-84
2022/06/30 05:53:30;;;;;;;11.25;7.65;;;;;;;22.84;nan;95139.03;6273150;22;20089;-85
2022/06/30 05:55:55;;;;;;;20.55;8.13;;;;;;;23.42;nan;95217.63;6265675;22;20027;-84
2022/06/30 05:58:21;;;;;;;19.73;8.43;;;;;;;22.94;nan;95175.56;6238107;22;20015;-83
2022/06/30 06:00:47;;;;;;;14.90;8.35;;;;;;;23.06;nan;95213.31;6264651;22;20148;-84
2022/06/30 06:03:13;;;;;;;24.35;9.25;;;;;;;23.64;nan;95276.50;6234751;22;20068;-84
2022/06/30 06:05:39;;;;;;;12.02;8.63;;;;;;;22.62;nan;95136.94;6237744;22;20455;-84
2022/06/30 06:08:07;;;;;;;21.08;9.10;;;;;;;23.54;nan;95274.34;6238668;22;20034;-84
2022/06/30 06:10:32;;;;;;;20.13;8.75;;;;;;;23.45;nan;95247.44;6241454;22;20011;-83
2022/06/30 06:12:58;;;;;;;21.95;9.55;;;;;;;22.56;nan;95116.72;6266612;22;20007;-84
2022/06/30 06:15:23;;;;;;;16.45;9.07;;;;;;;23.74;nan;95270.53;6238636;22;20378;-85
2022/06/30 06:17:49;;;;;;;30.95;9.13;;;;;;;23.62;nan;95243.59;6236847;22;20576;-84
2022/06/30 06:20:18;;;;;;;22.10;9.82;;;;;;;23.54;nan;95247.28;6261985;22;20352;-84
2022/06/30 06:22:44;;;;;;;17.38;8.15;;;;;;;23.90;nan;95280.50;6237488;22;20062;-84
2022/06/30 06:25:10;;;;;;;17.50;9.55;;;;;;;23.80;nan;95269.09;6237890;22;20016;-85
2022/06/30 06:27:37;;;;;;;25.35;11.00;;;;;;;22.28;nan;95066.28;6230964;22;20731;-85
2022/06/30 06:30:10;;;;;;;21.75;10.48;;;;;;;22.00;nan;95002.69;6264971;22;20059;-85
2022/06/30 06:32:36;;;;;;;17.95;9.68;;;;;;;22.67;nan;95093.41;6201752;22;20401;-84
2022/06/30 06:35:05;;;;;;;21.95;10.20;;;;;;;23.64;nan;95244.03;6236404;22;20011;-84
2022/06/30 06:37:33;;;;;;;29.55;10.20;;;;;;;23.78;nan;95276.81;6257817;22;20042;-84
2022/06/30 06:39:59;;;;;;;17.60;9.90;;;;;;;23.43;nan;95219.16;6256528;22;20007;-84
2022/06/30 06:42:24;;;;;;;19.35;10.30;;;;;;;24.02;nan;95261.44;6256825;22;20008;-84
2022/06/30 06:44:50;;;;;;;19.33;10.10;;;;;;;23.18;nan;95164.53;6236182;22;20287;-84
2022/06/30 06:47:16;;;;;;;13.90;8.82;;;;;;;22.38;nan;95037.16;6262205;22;20012;-84
2022/06/30 06:49:43;;;;;;;20.25;8.88;;;;;;;23.27;nan;95146.13;6263042;22;20030;-84
2022/06/30 06:52:09;;;;;;;19.67;9.63;;;;;;;23.87;nan;95240.63;6240223;22;20018;-84
2022/06/30 06:54:34;;;;;;;22.95;8.55;;;;;;;23.36;nan;95151.34;6237563;22;20076;-84
2022/06/30 06:57:00;;;;;;;20.23;10.20;;;;;;;23.58;nan;95166.91;6246916;22;20024;-84
2022/06/30 06:59:25;;;;;;;19.23;9.50;;;;;;;23.94;nan;95257.78;6260809;22;20015;-84
2022/06/30 07:01:51;;;;;;;19.52;9.00;;;;;;;22.59;nan;95037.63;6252977;22;20011;-84
2022/06/30 07:04:16;;;;;;;21.33;9.48;;;;;;;23.77;nan;95225.72;6257734;22;20480;-84
2022/06/30 07:06:43;;;;;;;18.30;8.80;;;;;;;23.35;nan;95150.56;6260341;22;20038;-84
2022/06/30 07:09:08;;;;;;;21.65;10.95;;;;;;;23.69;nan;95191.50;6265069;22;20017;-84
2022/06/30 07:11:34;;;;;;;23.80;10.25;;;;;;;23.72;nan;95190.81;6262274;22;20062;-84
2022/06/30 07:13:59;;;;;;;21.67;9.10;;;;;;;22.76;nan;95056.19;6268236;22;20034;-85
2022/06/30 07:16:25;;;;;;;15.18;8.55;;;;;;;23.96;nan;95197.81;6263609;22;20019;-86
2022/06/30 07:18:50;;;;;;;25.92;8.27;;;;;;;24.41;nan;95245.94;6265335;22;20014;-86
2022/06/30 07:21:17;;;;;;;16.75;8.45;;;;;;;23.67;nan;95129.59;6265772;22;20019;-86
2022/06/30 07:23:44;;;;;;;18.20;8.60;;;;;;;23.29;nan;95051.88;6261125;22;20011;-86
2022/06/30 07:26:11;;;;;;;23.70;10.40;;;;;;;24.52;nan;95253.13;6263587;22;20008;-86
2022/06/30 07:28:37;;;;;;;22.45;8.88;;;;;;;24.48;nan;95244.16;6263705;22;20031;-86
2022/06/30 07:31:02;;;;;;;19.27;9.32;;;;;;;24.26;nan;95203.47;6261145;22;20019;-86
2022/06/30 07:33:28;;;;;;;17.13;8.57;;;;;;;24.44;nan;95210.75;6265025;22;20386;-86
2022/06/30 07:35:54;;;;;;;15.15;8.55;;;;;;;24.34;nan;95186.94;6262212;22;20004;-86
2022/06/30 07:38:19;;;;;;;14.90;8.23;;;;;;;24.80;nan;95228.41;6264102;22;20030;-86
2022/06/30 07:40:45;;;;;;;17.17;8.07;;;;;;;24.14;nan;95125.81;6266453;22;20072;-85
2022/06/30 07:43:11;;;;;;;17.05;8.60;;;;;;;23.92;nan;95091.34;6265002;22;20053;-85
2022/06/30 07:45:37;;;;;;;15.60;8.52;;;;;;;24.11;nan;95156.31;6263923;22;20013;-86
2022/06/30 07:48:02;;;;;;;17.67;8.57;;;;;;;24.28;nan;95150.47;6263974;22;20497;-85
2022/06/30 07:50:28;;;;;;;20.08;9.15;;;;;;;24.81;nan;95221.06;6264255;22;20006;-85
2022/06/30 07:52:53;;;;;;;19.20;9.00;;;;;;;24.63;nan;95171.19;6266230;22;20019;-85
2022/06/30 07:55:19;;;;;;;21.73;9.23;;;;;;;25.07;nan;95236.63;6269973;22;20017;-86
2022/06/30 07:57:48;;;;;;;18.20;10.05;;;;;;;24.42;nan;95128.22;6269413;22;20019;-85
2022/06/30 08:00:15;;;;;;;18.15;8.90;;;;;;;24.67;nan;95161.94;6268830;22;20198;-87
2022/06/30 08:02:41;;;;;;;19.38;9.32;;;;;;;24.55;nan;95162.16;6266439;22;20015;-85
2022/06/30 08:05:07;;;;;;;14.30;8.23;;;;;;;24.68;nan;95198.00;6266627;22;20386;-86
2022/06/30 08:07:33;;;;;;;22.17;8.30;;;;;;;25.13;nan;95237.88;6259123;22;20007;-86
2022/06/30 08:09:59;;;;;;;13.52;8.20;;;;;;;25.35;nan;95240.53;6263210;22;20046;-85
2022/06/30 08:12:25;;;;;;;16.42;7.57;;;;;;;25.02;nan;95163.69;6258736;22;20008;-85
2022/06/30 08:14:50;;;;;;;19.75;7.93;;;;;;;25.51;nan;95228.72;6264872;22;20406;-86
2022/06/30 08:17:16;;;;;;;15.65;7.65;;;;;;;25.16;nan;95174.75;6263542;22;20011;-85
2022/06/30 08:19:42;;;;;;;15.85;7.55;;;;;;;25.71;nan;95236.41;6264306;22;20125;-85
2022/06/30 08:22:07;;;;;;;15.23;7.47;;;;;;;25.84;nan;95228.03;6265874;22;20008;-85
2022/06/30 08:24:34;;;;;;;26.35;6.97;;;;;;;25.16;nan;95126.69;6266206;22;20018;-85
2022/06/30 08:27:02;;;;;;;14.60;6.93;;;;;;;25.70;nan;95185.19;6265188;22;20051;-85
2022/06/30 08:29:34;;;;;;;15.35;7.20;;;;;;;25.51;nan;95144.56;6264196;22;20101;-84
2022/06/30 08:32:01;;;;;;;17.17;7.25;;;;;;;25.70;nan;95164.25;6260363;22;20007;-84
2022/06/30 08:34:27;;;;;;;15.43;6.88;;;;;;;26.17;nan;95228.03;6263972;22;20077;-84
2022/06/30 08:36:52;;;;;;;15.05;7.45;;;;;;;26.17;nan;95230.75;6262865;22;20019;-84
2022/06/30 08:42:02;;;;;;;15.23;6.60;;;;;;;25.80;nan;95192.66;6262332;22;20509;-85
2022/06/30 08:44:33;;;;;;;17.60;7.75;;;;;;;25.79;nan;95169.38;6264233;22;20004;-84
2022/06/30 08:46:59;;;;;;;15.20;7.37;;;;;;;25.99;nan;95205.31;6263181;22;20026;-83
2022/06/30 08:49:25;;;;;;;14.55;7.07;;;;;;;25.75;nan;95163.91;6266123;22;20337;-84
2022/06/30 08:51:52;;;;;;;19.73;7.32;;;;;;;25.83;nan;95167.50;6264832;22;20094;-85
2022/06/30 08:54:21;;;;;;;12.27;6.88;;;;;;;25.78;nan;95154.25;6265260;22;20016;-84
2022/06/30 08:56:49;;;;;;;17.33;5.65;;;;;;;26.23;nan;95220.34;6265267;22;20027;-85
2022/06/30 08:59:15;;;;;;;13.80;5.60;;;;;;;26.08;nan;95171.28;6265741;22;20465;-85
2022/06/30 09:01:40;;;;;;;17.13;6.78;;;;;;;26.45;nan;95217.50;6266009;22;20015;-85
2022/06/30 09:04:07;;;;;;;15.45;6.05;;;;;;;25.87;nan;95115.91;6263888;22;20277;-85
2022/06/30 09:06:33;;;;;;;9.73;5.88;;;;;;;26.30;nan;95183.16;6290858;22;20023;-85
2022/06/30 09:08:58;;;;;;;15.68;6.20;;;;;;;26.38;nan;95203.84;6265303;22;20015;-84
2022/06/30 09:11:43;;;;;;;10.15;6.07;;;;;;;26.43;nan;95214.38;6265565;22;20012;-84
2022/06/30 09:14:09;;;;;;;17.20;6.70;;;;;;;26.44;nan;95215.16;6266069;22;20506;-84
2022/06/30 09:16:34;;;;;;;19.33;6.72;;;;;;;26.28;nan;95165.66;6267277;22;20008;-85
2022/06/30 09:19:00;;;;;;;10.73;5.00;;;;;;;26.28;nan;95146.63;6266028;22;20012;-86
2022/06/30 09:21:26;;;;;;;10.43;5.85;;;;;;;26.69;nan;95199.06;6271869;22;20011;-85
2022/06/30 09:23:52;;;;;;;13.27;6.28;;;;;;;26.69;nan;95210.72;6270331;22;20007;-85
2022/06/30 09:26:19;;;;;;;17.30;5.18;;;;;;;26.80;nan;95205.34;6268721;22;20027;-86
2022/06/30 09:28:51;;;;;;;11.38;6.30;;;;;;;26.56;nan;95174.06;6267820;22;20015;-84
2022/06/30 09:31:31;;;;;;;10.52;5.65;;;;;;;26.42;nan;95130.44;6267261;22;20008;-85
2022/06/30 09:34:09;;;;;;;10.63;5.82;;;;;;;26.88;nan;95196.88;6268408;22;20334;-84
2022/06/30 09:36:35;;;;;;;14.40;6.20;;;;;;;26.69;nan;95153.59;6271610;22;20094;-85
2022/06/30 09:39:02;;;;;;;13.90;5.80;;;;;;;26.55;nan;95129.00;6269976;22;20095;-84
2022/06/30 09:41:29;;;;;;;8.05;5.47;;;;;;;26.91;nan;95184.50;6269539;22;20450;-84
2022/06/30 09:43:55;;;;;;;14.13;5.63;;;;;;;27.16;nan;95192.81;6269077;22;20023;-85
2022/06/30 09:46:21;;;;;;;17.90;6.03;;;;;;;27.32;nan;95190.59;6271496;22;20012;-85
2022/06/30 09:48:47;;;;;;;14.00;5.35;;;;;;;28.07;nan;95189.03;6269680;22;20012;-85
2022/06/30 09:51:13;;;;;;;9.18;4.35;;;;;;;29.01;nan;95203.22;6270879;22;20012;-85
2022/06/30 09:53:38;;;;;;;9.15;4.18;;;;;;;29.62;nan;95179.34;6271532;22;20038;-84
2022/06/30 09:56:18;;;;;;;10.68;4.90;;;;;;;31.00;nan;95196.97;6264626;22;20034;-84
2022/06/30 09:58:44;;;;;;;8.95;4.05;;;;;;;31.79;nan;95186.84;6272472;22;20489;-84
2022/06/30 10:01:10;;;;;;;14.77;4.60;;;;;;;32.78;nan;95171.03;6269330;22;20098;-84
2022/06/30 10:03:47;;;;;;;6.13;4.50;;;;;;;33.84;nan;95190.41;6271790;22;20354;-84
2022/06/30 10:06:17;;;;;;;5.50;3.53;;;;;;;33.86;nan;95087.03;6265896;22;20012;-84
2022/06/30 10:08:43;;;;;;;11.00;4.15;;;;;;;34.77;nan;95121.16;6268646;22;20014;-84
2022/06/30 10:11:09;;;;;;;10.80;4.15;;;;;;;35.56;nan;95156.53;6269183;22;20004;-85
2022/06/30 10:13:37;;;;;;;6.55;3.72;;;;;;;36.26;nan;95184.16;6266964;22;20274;-84
2022/06/30 10:16:05;;;;;;;10.25;3.55;;;;;;;36.38;nan;95148.72;6270429;22;20003;-84
2022/06/30 10:18:35;;;;;;;8.07;3.28;;;;;;;36.22;nan;95100.69;6268004;22;20165;-83
2022/06/30 10:21:01;;;;;;;6.65;3.05;;;;;;;37.17;nan;95173.44;6272678;22;20018;-84
2022/06/30 10:23:27;;;;;;;6.10;3.80;;;;;;;37.41;nan;95179.34;6268996;22;20090;-84
2022/06/30 10:25:55;;;;;;;8.35;2.83;;;;;;;36.76;nan;95118.34;6269946;22;20022;-84
2022/06/30 10:28:23;;;;;;;8.82;3.60;;;;;;;37.11;nan;95153.88;6268736;22;20458;-85
2022/06/30 10:31:15;;;;;;;10.80;4.53;;;;;;;37.63;nan;95124.09;6267133;22;20362;-86
2022/06/30 10:33:59;;;;;;;8.80;3.40;;;;;;;38.07;nan;95172.69;6269477;22;20023;-85
2022/06/30 10:36:36;;;;;;;15.88;4.53;;;;;;;37.44;nan;95170.94;6272752;22;20019;-85
2022/06/30 10:39:17;;;;;;;5.05;3.22;;;;;;;37.69;nan;95144.44;6271681;22;20083;-85
2022/06/30 10:41:47;;;;;;;6.13;3.13;;;;;;;37.68;nan;95129.06;6268763;22;20011;-85
2022/06/30 10:44:33;;;;;;;10.70;3.25;;;;;;;37.96;nan;95133.53;6269977;22;20038;-85
2022/06/30 10:46:58;;;;;;;10.38;3.10;;;;;;;38.10;nan;95149.66;6269765;22;20016;-85
2022/06/30 10:49:25;;;;;;;6.95;3.10;;;;;;;36.55;nan;95081.84;6269676;22;20469;-85
2022/06/30 10:51:55;;;;;;;9.10;3.10;;;;;;;37.02;nan;95104.00;6264035;22;20470;-84
2022/06/30 10:54:29;;;;;;;8.27;3.10;;;;;;;37.66;nan;95146.09;6268000;22;20007;-85
2022/06/30 10:56:56;;;;;;;7.07;3.47;;;;;;;37.38;nan;95125.69;6265346;22;20531;-85
2022/06/30 10:59:31;;;;;;;7.10;2.72;;;;;;;37.16;nan;95066.84;6264635;22;20313;-85
2022/06/30 11:02:11;;;;;;;5.05;2.70;;;;;;;38.04;nan;95140.38;6263716;22;20027;-85
2022/06/30 11:04:50;;;;;;;;;;;;;;;37.94;nan;95144.28;6266459;22;20378;-85
2022/06/30 11:07:24;;;;;;;6.93;2.58;;;;;;;37.21;nan;95080.09;6267737;22;19915;-84
2022/06/30 11:09:51;;;;;;;4.35;2.53;;;;;;;38.12;nan;95136.13;6266183;22;20355;-84
2022/06/30 11:12:48;;;;;;;7.07;2.78;;;;;;;37.96;nan;95111.41;6268011;22;20494;-84
2022/06/30 11:15:14;;;;;;;6.95;2.70;;;;;;;37.56;nan;95080.03;6265982;22;20062;-84
2022/06/30 11:17:40;;;;;;;7.35;3.15;;;;;;;37.10;nan;95010.56;6267909;22;20015;-83
2022/06/30 11:20:12;;;;;;;4.50;2.65;;;;;;;37.89;nan;95122.72;6269198;22;20034;-83
2022/06/30 11:22:38;;;;;;;8.80;2.85;;;;;;;38.07;nan;95119.34;6266086;22;20451;-84
2022/06/30 11:27:17;;;;;;;4.80;3.17;;;;;;;38.12;nan;95118.75;6267632;22;20039;-83
2022/06/30 11:28:07;;;;;;;6.13;2.83;;;;;;;38.38;nan;95111.75;6268261;22;20054;-84
2022/06/30 11:30:35;;;;;;;9.30;3.03;;;;;;;38.56;nan;95100.00;6267397;22;20134;-84
2022/06/30 11:33:00;;;;;;;4.72;2.45;;;;;;;38.19;nan;95068.63;6266061;22;20040;-84
2022/06/30 11:35:28;;;;;;;10.25;2.30;;;;;;;38.12;nan;95107.66;6270803;22;20014;-84
2022/06/30 11:37:54;;;;;;;4.35;2.65;;;;;;;38.19;nan;95077.69;6269686;22;20403;-84
2022/06/30 11:40:19;;;;;;;5.88;2.80;;;;;;;37.77;nan;95041.31;6269714;22;20012;-84
2022/06/30 11:42:45;;;;;;;9.73;2.58;;;;;;;38.14;nan;95070.00;6269900;22;20348;-84
2022/06/30 11:45:21;;;;;;;8.35;2.47;;;;;;;38.21;nan;95102.94;6268900;22;20481;-84
2022/06/30 11:48:05;;;;;;;2.38;2.15;;;;;;;37.90;nan;95019.09;6270453;22;20366;-85
2022/06/30 11:50:30;;;;;;;7.13;2.30;;;;;;;38.29;nan;95086.81;6270555;22;20042;-84
2022/06/30 11:52:57;;;;;;;8.52;2.85;;;;;;;38.84;nan;95092.53;6268258;22;20358;-84
2022/06/30 11:55:28;;;;;;;5.85;2.15;;;;;;;38.55;nan;95049.38;6267569;22;20039;-84